sensor_id;sensor_type;location;lat;lon;timestamp;P1;durP1;ratioP1;P2;durP2;ratioP2
53833;SDS011;39735;51.432;5.482;2024-02-26T00:01:25;8.98;;;3.05;;
53833;SDS011;39735;51.432;5.482;2024-02-26T00:03:50;5.68;;;4.18;;
53833;SDS011;39735;51.432;5.482;2024-02-26T00:06:17;9.82;;;4.43;;
53833;SDS011;39735;51.432;5.482;2024-02-26T00:08:43;4.25;;;3.13;;
53833;SDS011;39735;51.432;5.482;2024-02-26T00:11:09;14.15;;;5.95;;
53833;SDS011;39735;51.432;5.482;2024-02-26T00:13:35;13.80;;;5.60;;
53833;SDS011;39735;51.432;5.482;2024-02-26T00:16:01;10.02;;;5.05;;
53833;SDS011;39735;51.432;5.482;2024-02-26T00:18:26;8.98;;;4.68;;
53833;SDS011;39735;51.432;5.482;2024-02-26T00:20:52;6.75;;;3.78;;
53833;SDS011;39735;51.432;5.482;2024-02-26T00:23:17;5.53;;;3.70;;
53833;SDS011;39735;51.432;5.482;2024-02-26T00:25:43;11.50;;;5.22;;
53833;SDS011;39735;51.432;5.482;2024-02-26T00:28:10;11.75;;;5.13;;
53833;SDS011;39735;51.432;5.482;2024-02-26T00:30:35;6.70;;;4.22;;
53833;SDS011;39735;51.432;5.482;2024-02-26T00:33:01;6.72;;;4.15;;
53833;SDS011;39735;51.432;5.482;2024-02-26T00:35:26;8.77;;;4.35;;
53833;SDS011;39735;51.432;5.482;2024-02-26T00:37:52;13.77;;;4.40;;
53833;SDS011;39735;51.432;5.482;2024-02-26T00:40:18;15.50;;;4.38;;
53833;SDS011;39735;51.432;5.482;2024-02-26T00:42:43;7.68;;;4.13;;
53833;SDS011;39735;51.432;5.482;2024-02-26T00:45:11;7.97;;;3.88;;
53833;SDS011;39735;51.432;5.482;2024-02-26T00:47:37;9.57;;;4.88;;
53833;SDS011;39735;51.432;5.482;2024-02-26T00:50:03;15.35;;;5.50;;
53833;SDS011;39735;51.432;5.482;2024-02-26T00:52:28;5.80;;;4.18;;
53833;SDS011;39735;51.432;5.482;2024-02-26T00:54:54;12.35;;;5.43;;
53833;SDS011;39735;51.432;5.482;2024-02-26T00:57:20;8.23;;;4.57;;
53833;SDS011;39735;51.432;5.482;2024-02-26T00:59:45;6.60;;;4.75;;
53833;SDS011;39735;51.432;5.482;2024-02-26T01:02:10;13.38;;;5.70;;
53833;SDS011;39735;51.432;5.482;2024-02-26T01:04:36;17.70;;;5.05;;
53833;SDS011;39735;51.432;5.482;2024-02-26T01:07:02;12.35;;;6.05;;
53833;SDS011;39735;51.432;5.482;2024-02-26T01:09:28;8.40;;;4.60;;
53833;SDS011;39735;51.432;5.482;2024-02-26T01:11:53;14.07;;;5.45;;
53833;SDS011;39735;51.432;5.482;2024-02-26T01:14:19;7.40;;;4.47;;
53833;SDS011;39735;51.432;5.482;2024-02-26T01:16:44;19.27;;;6.72;;
53833;SDS011;39735;51.432;5.482;2024-02-26T01:19:10;11.80;;;4.32;;
53833;SDS011;39735;51.432;5.482;2024-02-26T01:21:36;8.75;;;4.20;;
53833;SDS011;39735;51.432;5.482;2024-02-26T01:24:01;10.02;;;5.43;;
53833;SDS011;39735;51.432;5.482;2024-02-26T01:26:29;10.55;;;4.45;;
53833;SDS011;39735;51.432;5.482;2024-02-26T01:28:56;7.47;;;4.22;;
53833;SDS011;39735;51.432;5.482;2024-02-26T01:31:21;8.88;;;4.35;;
53833;SDS011;39735;51.432;5.482;2024-02-26T01:33:50;14.40;;;6.28;;
53833;SDS011;39735;51.432;5.482;2024-02-26T01:36:15;8.48;;;5.07;;
53833;SDS011;39735;51.432;5.482;2024-02-26T01:38:41;14.38;;;4.47;;
53833;SDS011;39735;51.432;5.482;2024-02-26T01:41:06;7.53;;;5.03;;
53833;SDS011;39735;51.432;5.482;2024-02-26T01:43:32;11.77;;;5.18;;
53833;SDS011;39735;51.432;5.482;2024-02-26T01:45:58;8.25;;;3.47;;
53833;SDS011;39735;51.432;5.482;2024-02-26T01:48:23;9.32;;;4.97;;
53833;SDS011;39735;51.432;5.482;2024-02-26T01:50:49;7.43;;;4.03;;
53833;SDS011;39735;51.432;5.482;2024-02-26T01:53:15;15.70;;;5.80;;
53833;SDS011;39735;51.432;5.482;2024-02-26T01:55:41;5.15;;;3.22;;
53833;SDS011;39735;51.432;5.482;2024-02-26T01:58:07;2.75;;;2.55;;
53833;SDS011;39735;51.432;5.482;2024-02-26T02:00:33;14.07;;;3.47;;
53833;SDS011;39735;51.432;5.482;2024-02-26T02:02:59;4.60;;;3.25;;
53833;SDS011;39735;51.432;5.482;2024-02-26T02:05:27;7.43;;;4.07;;
53833;SDS011;39735;51.432;5.482;2024-02-26T02:07:53;5.38;;;3.10;;
53833;SDS011;39735;51.432;5.482;2024-02-26T02:10:19;5.97;;;4.03;;
53833;SDS011;39735;51.432;5.482;2024-02-26T02:12:48;4.88;;;2.42;;
53833;SDS011;39735;51.432;5.482;2024-02-26T02:15:14;6.85;;;3.40;;
53833;SDS011;39735;51.432;5.482;2024-02-26T02:17:39;6.57;;;2.60;;
53833;SDS011;39735;51.432;5.482;2024-02-26T02:20:31;5.55;;;3.60;;
53833;SDS011;39735;51.432;5.482;2024-02-26T02:22:57;6.85;;;3.95;;
53833;SDS011;39735;51.432;5.482;2024-02-26T02:25:23;5.45;;;3.30;;
53833;SDS011;39735;51.432;5.482;2024-02-26T02:27:49;6.28;;;3.10;;
53833;SDS011;39735;51.432;5.482;2024-02-26T02:30:17;4.00;;;2.53;;
53833;SDS011;39735;51.432;5.482;2024-02-26T02:32:42;9.45;;;4.63;;
53833;SDS011;39735;51.432;5.482;2024-02-26T02:35:08;8.98;;;3.30;;
53833;SDS011;39735;51.432;5.482;2024-02-26T02:37:34;15.55;;;3.63;;
53833;SDS011;39735;51.432;5.482;2024-02-26T02:39:59;9.63;;;3.72;;
53833;SDS011;39735;51.432;5.482;2024-02-26T02:42:25;14.55;;;4.68;;
53833;SDS011;39735;51.432;5.482;2024-02-26T02:44:51;4.95;;;2.70;;
53833;SDS011;39735;51.432;5.482;2024-02-26T02:47:16;7.50;;;3.85;;
53833;SDS011;39735;51.432;5.482;2024-02-26T02:49:42;5.75;;;3.17;;
53833;SDS011;39735;51.432;5.482;2024-02-26T02:52:07;5.85;;;2.95;;
53833;SDS011;39735;51.432;5.482;2024-02-26T02:54:33;9.35;;;3.20;;
53833;SDS011;39735;51.432;5.482;2024-02-26T02:56:59;21.75;;;3.33;;
53833;SDS011;39735;51.432;5.482;2024-02-26T02:59:24;4.78;;;2.95;;
53833;SDS011;39735;51.432;5.482;2024-02-26T03:01:50;5.88;;;3.10;;
53833;SDS011;39735;51.432;5.482;2024-02-26T03:04:15;2.83;;;2.60;;
53833;SDS011;39735;51.432;5.482;2024-02-26T03:06:41;3.75;;;2.65;;
53833;SDS011;39735;51.432;5.482;2024-02-26T03:09:06;2.92;;;2.15;;
53833;SDS011;39735;51.432;5.482;2024-02-26T03:11:32;6.78;;;2.70;;
53833;SDS011;39735;51.432;5.482;2024-02-26T03:13:58;5.40;;;4.10;;
53833;SDS011;39735;51.432;5.482;2024-02-26T03:16:23;6.10;;;2.78;;
53833;SDS011;39735;51.432;5.482;2024-02-26T03:18:49;2.58;;;2.33;;
53833;SDS011;39735;51.432;5.482;2024-02-26T03:21:14;3.17;;;2.35;;
53833;SDS011;39735;51.432;5.482;2024-02-26T03:23:40;3.17;;;2.70;;
53833;SDS011;39735;51.432;5.482;2024-02-26T03:26:05;5.70;;;2.50;;
53833;SDS011;39735;51.432;5.482;2024-02-26T03:28:31;2.42;;;2.22;;
53833;SDS011;39735;51.432;5.482;2024-02-26T03:30:58;8.20;;;2.88;;
53833;SDS011;39735;51.432;5.482;2024-02-26T03:33:24;1.88;;;1.77;;
53833;SDS011;39735;51.432;5.482;2024-02-26T03:35:50;2.92;;;2.60;;
53833;SDS011;39735;51.432;5.482;2024-02-26T03:38:15;5.68;;;2.42;;
53833;SDS011;39735;51.432;5.482;2024-02-26T03:40:41;3.33;;;2.05;;
53833;SDS011;39735;51.432;5.482;2024-02-26T03:43:07;4.88;;;2.08;;
53833;SDS011;39735;51.432;5.482;2024-02-26T03:45:33;3.08;;;1.98;;
53833;SDS011;39735;51.432;5.482;2024-02-26T03:47:58;2.22;;;2.13;;
53833;SDS011;39735;51.432;5.482;2024-02-26T03:50:24;2.45;;;1.67;;
53833;SDS011;39735;51.432;5.482;2024-02-26T03:52:50;2.45;;;2.28;;
53833;SDS011;39735;51.432;5.482;2024-02-26T03:55:16;3.67;;;2.63;;
53833;SDS011;39735;51.432;5.482;2024-02-26T03:57:45;6.30;;;2.60;;
53833;SDS011;39735;51.432;5.482;2024-02-26T04:00:11;4.28;;;2.83;;
53833;SDS011;39735;51.432;5.482;2024-02-26T04:02:40;4.03;;;3.72;;
53833;SDS011;39735;51.432;5.482;2024-02-26T04:05:09;4.05;;;2.78;;
53833;SDS011;39735;51.432;5.482;2024-02-26T04:07:35;1.63;;;1.50;;
53833;SDS011;39735;51.432;5.482;2024-02-26T04:10:01;4.28;;;2.05;;
53833;SDS011;39735;51.432;5.482;2024-02-26T04:12:29;2.22;;;2.13;;
53833;SDS011;39735;51.432;5.482;2024-02-26T04:14:55;2.20;;;2.00;;
53833;SDS011;39735;51.432;5.482;2024-02-26T04:17:21;8.85;;;3.28;;
53833;SDS011;39735;51.432;5.482;2024-02-26T04:19:46;9.02;;;4.18;;
53833;SDS011;39735;51.432;5.482;2024-02-26T04:22:11;2.95;;;1.70;;
53833;SDS011;39735;51.432;5.482;2024-02-26T04:24:37;2.67;;;2.47;;
53833;SDS011;39735;51.432;5.482;2024-02-26T04:27:03;8.35;;;2.17;;
53833;SDS011;39735;51.432;5.482;2024-02-26T04:29:28;8.30;;;1.95;;
53833;SDS011;39735;51.432;5.482;2024-02-26T04:31:54;2.40;;;2.30;;
53833;SDS011;39735;51.432;5.482;2024-02-26T04:34:19;2.65;;;1.63;;
53833;SDS011;39735;51.432;5.482;2024-02-26T04:36:45;2.17;;;1.83;;
53833;SDS011;39735;51.432;5.482;2024-02-26T04:39:13;2.35;;;2.22;;
53833;SDS011;39735;51.432;5.482;2024-02-26T04:41:41;2.20;;;1.98;;
53833;SDS011;39735;51.432;5.482;2024-02-26T04:44:06;1.52;;;1.52;;
53833;SDS011;39735;51.432;5.482;2024-02-26T04:46:32;2.70;;;2.47;;
53833;SDS011;39735;51.432;5.482;2024-02-26T04:48:58;2.95;;;1.35;;
53833;SDS011;39735;51.432;5.482;2024-02-26T04:51:23;2.53;;;1.70;;
53833;SDS011;39735;51.432;5.482;2024-02-26T04:53:49;4.22;;;2.35;;
53833;SDS011;39735;51.432;5.482;2024-02-26T04:56:14;2.83;;;1.88;;
53833;SDS011;39735;51.432;5.482;2024-02-26T04:58:39;2.17;;;2.05;;
53833;SDS011;39735;51.432;5.482;2024-02-26T05:01:05;2.80;;;1.77;;
53833;SDS011;39735;51.432;5.482;2024-02-26T05:03:31;10.88;;;2.05;;
53833;SDS011;39735;51.432;5.482;2024-02-26T05:05:56;2.15;;;2.10;;
53833;SDS011;39735;51.432;5.482;2024-02-26T05:08:23;5.65;;;1.98;;
53833;SDS011;39735;51.432;5.482;2024-02-26T05:10:48;2.55;;;2.10;;
53833;SDS011;39735;51.432;5.482;2024-02-26T05:13:14;2.78;;;2.08;;
53833;SDS011;39735;51.432;5.482;2024-02-26T05:15:42;4.45;;;3.42;;
53833;SDS011;39735;51.432;5.482;2024-02-26T05:18:08;4.32;;;2.35;;
53833;SDS011;39735;51.432;5.482;2024-02-26T05:20:34;4.30;;;2.28;;
53833;SDS011;39735;51.432;5.482;2024-02-26T05:23:01;5.68;;;2.53;;
53833;SDS011;39735;51.432;5.482;2024-02-26T05:25:26;2.78;;;2.20;;
53833;SDS011;39735;51.432;5.482;2024-02-26T05:27:52;2.55;;;1.98;;
53833;SDS011;39735;51.432;5.482;2024-02-26T05:30:17;2.28;;;2.15;;
53833;SDS011;39735;51.432;5.482;2024-02-26T05:32:43;1.67;;;1.52;;
53833;SDS011;39735;51.432;5.482;2024-02-26T05:35:08;1.77;;;1.65;;
53833;SDS011;39735;51.432;5.482;2024-02-26T05:37:34;2.63;;;2.05;;
53833;SDS011;39735;51.432;5.482;2024-02-26T05:39:59;1.73;;;1.55;;
53833;SDS011;39735;51.432;5.482;2024-02-26T05:42:25;8.80;;;2.38;;
53833;SDS011;39735;51.432;5.482;2024-02-26T05:44:50;3.08;;;1.80;;
53833;SDS011;39735;51.432;5.482;2024-02-26T05:47:16;2.15;;;1.42;;
53833;SDS011;39735;51.432;5.482;2024-02-26T05:49:42;4.38;;;2.35;;
53833;SDS011;39735;51.432;5.482;2024-02-26T05:52:08;2.03;;;1.83;;
53833;SDS011;39735;51.432;5.482;2024-02-26T05:54:34;4.05;;;1.77;;
53833;SDS011;39735;51.432;5.482;2024-02-26T05:56:59;1.38;;;1.38;;
53833;SDS011;39735;51.432;5.482;2024-02-26T05:59:25;6.20;;;2.33;;
53833;SDS011;39735;51.432;5.482;2024-02-26T06:01:52;4.70;;;1.75;;
53833;SDS011;39735;51.432;5.482;2024-02-26T06:04:18;11.48;;;1.88;;
53833;SDS011;39735;51.432;5.482;2024-02-26T06:06:44;6.38;;;3.22;;
53833;SDS011;39735;51.432;5.482;2024-02-26T06:09:10;2.08;;;1.85;;
53833;SDS011;39735;51.432;5.482;2024-02-26T06:11:36;3.67;;;1.67;;
53833;SDS011;39735;51.432;5.482;2024-02-26T06:14:02;5.10;;;2.95;;
53833;SDS011;39735;51.432;5.482;2024-02-26T06:16:27;3.03;;;1.75;;
53833;SDS011;39735;51.432;5.482;2024-02-26T06:18:53;1.75;;;1.65;;
53833;SDS011;39735;51.432;5.482;2024-02-26T06:21:18;2.40;;;1.67;;
53833;SDS011;39735;51.432;5.482;2024-02-26T06:23:44;1.85;;;1.75;;
53833;SDS011;39735;51.432;5.482;2024-02-26T06:26:09;1.88;;;1.88;;
53833;SDS011;39735;51.432;5.482;2024-02-26T06:28:35;1.90;;;1.80;;
53833;SDS011;39735;51.432;5.482;2024-02-26T06:31:01;1.60;;;1.60;;
53833;SDS011;39735;51.432;5.482;2024-02-26T06:33:27;7.55;;;1.48;;
53833;SDS011;39735;51.432;5.482;2024-02-26T06:35:53;2.22;;;1.90;;
53833;SDS011;39735;51.432;5.482;2024-02-26T06:38:18;2.58;;;1.90;;
53833;SDS011;39735;51.432;5.482;2024-02-26T06:40:44;4.43;;;1.60;;
53833;SDS011;39735;51.432;5.482;2024-02-26T06:43:10;2.80;;;1.52;;
53833;SDS011;39735;51.432;5.482;2024-02-26T06:45:35;2.55;;;1.63;;
53833;SDS011;39735;51.432;5.482;2024-02-26T06:48:00;2.28;;;2.17;;
53833;SDS011;39735;51.432;5.482;2024-02-26T06:50:27;3.22;;;2.58;;
53833;SDS011;39735;51.432;5.482;2024-02-26T06:52:53;2.08;;;1.98;;
53833;SDS011;39735;51.432;5.482;2024-02-26T06:55:18;1.98;;;1.88;;
53833;SDS011;39735;51.432;5.482;2024-02-26T06:57:45;4.78;;;2.53;;
53833;SDS011;39735;51.432;5.482;2024-02-26T07:00:11;2.30;;;1.77;;
53833;SDS011;39735;51.432;5.482;2024-02-26T07:02:39;2.13;;;1.92;;
53833;SDS011;39735;51.432;5.482;2024-02-26T07:05:05;2.22;;;2.13;;
53833;SDS011;39735;51.432;5.482;2024-02-26T07:07:31;4.07;;;2.67;;
53833;SDS011;39735;51.432;5.482;2024-02-26T07:09:56;4.13;;;2.67;;
53833;SDS011;39735;51.432;5.482;2024-02-26T07:12:22;2.13;;;2.05;;
53833;SDS011;39735;51.432;5.482;2024-02-26T07:14:48;2.65;;;2.10;;
53833;SDS011;39735;51.432;5.482;2024-02-26T07:17:14;2.65;;;2.45;;
53833;SDS011;39735;51.432;5.482;2024-02-26T07:19:41;4.75;;;2.65;;
53833;SDS011;39735;51.432;5.482;2024-02-26T07:22:06;2.33;;;2.22;;
53833;SDS011;39735;51.432;5.482;2024-02-26T07:24:32;3.35;;;2.80;;
53833;SDS011;39735;51.432;5.482;2024-02-26T07:26:57;2.60;;;2.50;;
53833;SDS011;39735;51.432;5.482;2024-02-26T07:29:23;3.55;;;2.35;;
53833;SDS011;39735;51.432;5.482;2024-02-26T07:31:51;8.82;;;4.30;;
53833;SDS011;39735;51.432;5.482;2024-02-26T07:34:17;5.80;;;3.42;;
53833;SDS011;39735;51.432;5.482;2024-02-26T07:36:43;3.10;;;2.90;;
53833;SDS011;39735;51.432;5.482;2024-02-26T07:39:09;3.50;;;3.22;;
53833;SDS011;39735;51.432;5.482;2024-02-26T07:41:35;9.73;;;3.72;;
53833;SDS011;39735;51.432;5.482;2024-02-26T07:44:00;3.30;;;3.20;;
53833;SDS011;39735;51.432;5.482;2024-02-26T07:46:26;6.18;;;3.33;;
53833;SDS011;39735;51.432;5.482;2024-02-26T07:48:51;4.25;;;3.55;;
53833;SDS011;39735;51.432;5.482;2024-02-26T07:51:17;2.70;;;2.45;;
53833;SDS011;39735;51.432;5.482;2024-02-26T07:53:42;5.47;;;3.65;;
53833;SDS011;39735;51.432;5.482;2024-02-26T07:56:08;4.18;;;2.42;;
53833;SDS011;39735;51.432;5.482;2024-02-26T07:58:34;4.72;;;3.30;;
53833;SDS011;39735;51.432;5.482;2024-02-26T08:01:00;3.13;;;2.70;;
53833;SDS011;39735;51.432;5.482;2024-02-26T08:03:25;17.23;;;3.08;;
53833;SDS011;39735;51.432;5.482;2024-02-26T08:05:51;4.10;;;2.75;;
53833;SDS011;39735;51.432;5.482;2024-02-26T08:08:16;3.72;;;3.45;;
53833;SDS011;39735;51.432;5.482;2024-02-26T08:10:42;4.13;;;3.53;;
53833;SDS011;39735;51.432;5.482;2024-02-26T08:13:08;12.07;;;3.50;;
53833;SDS011;39735;51.432;5.482;2024-02-26T08:15:36;5.40;;;3.72;;
53833;SDS011;39735;51.432;5.482;2024-02-26T08:18:05;2.60;;;2.40;;
53833;SDS011;39735;51.432;5.482;2024-02-26T08:20:30;7.50;;;4.30;;
53833;SDS011;39735;51.432;5.482;2024-02-26T08:22:56;4.18;;;3.20;;
53833;SDS011;39735;51.432;5.482;2024-02-26T08:25:22;2.80;;;2.70;;
53833;SDS011;39735;51.432;5.482;2024-02-26T08:27:48;2.60;;;2.50;;
53833;SDS011;39735;51.432;5.482;2024-02-26T08:30:14;3.38;;;2.75;;
53833;SDS011;39735;51.432;5.482;2024-02-26T08:32:42;2.53;;;2.42;;
53833;SDS011;39735;51.432;5.482;2024-02-26T08:35:08;2.08;;;2.08;;
53833;SDS011;39735;51.432;5.482;2024-02-26T08:37:34;2.15;;;2.05;;
53833;SDS011;39735;51.432;5.482;2024-02-26T08:39:59;5.40;;;4.30;;
53833;SDS011;39735;51.432;5.482;2024-02-26T08:42:24;2.83;;;2.72;;
53833;SDS011;39735;51.432;5.482;2024-02-26T08:44:50;3.63;;;3.28;;
53833;SDS011;39735;51.432;5.482;2024-02-26T08:47:15;3.47;;;3.03;;
53833;SDS011;39735;51.432;5.482;2024-02-26T08:49:44;4.32;;;3.65;;
53833;SDS011;39735;51.432;5.482;2024-02-26T08:52:10;3.50;;;2.63;;
53833;SDS011;39735;51.432;5.482;2024-02-26T08:54:36;5.35;;;3.22;;
53833;SDS011;39735;51.432;5.482;2024-02-26T08:57:01;8.93;;;2.97;;
53833;SDS011;39735;51.432;5.482;2024-02-26T08:59:27;3.08;;;2.88;;
53833;SDS011;39735;51.432;5.482;2024-02-26T09:01:53;2.58;;;2.40;;
53833;SDS011;39735;51.432;5.482;2024-02-26T09:04:18;9.00;;;3.17;;
53833;SDS011;39735;51.432;5.482;2024-02-26T09:06:44;3.97;;;2.63;;
53833;SDS011;39735;51.432;5.482;2024-02-26T09:09:10;3.35;;;2.45;;
53833;SDS011;39735;51.432;5.482;2024-02-26T09:11:36;2.55;;;2.45;;
53833;SDS011;39735;51.432;5.482;2024-02-26T09:14:01;6.45;;;3.17;;
53833;SDS011;39735;51.432;5.482;2024-02-26T09:16:27;3.38;;;3.00;;
53833;SDS011;39735;51.432;5.482;2024-02-26T09:18:52;4.22;;;2.88;;
53833;SDS011;39735;51.432;5.482;2024-02-26T09:21:17;2.17;;;2.03;;
53833;SDS011;39735;51.432;5.482;2024-02-26T09:23:48;3.92;;;2.97;;
53833;SDS011;39735;51.432;5.482;2024-02-26T09:26:14;6.57;;;3.53;;
53833;SDS011;39735;51.432;5.482;2024-02-26T09:28:39;5.63;;;4.03;;
53833;SDS011;39735;51.432;5.482;2024-02-26T09:31:05;3.92;;;3.70;;
53833;SDS011;39735;51.432;5.482;2024-02-26T09:33:33;2.92;;;2.80;;
53833;SDS011;39735;51.432;5.482;2024-02-26T09:35:59;3.55;;;2.90;;
53833;SDS011;39735;51.432;5.482;2024-02-26T09:38:25;5.38;;;2.83;;
53833;SDS011;39735;51.432;5.482;2024-02-26T09:40:51;3.80;;;2.95;;
53833;SDS011;39735;51.432;5.482;2024-02-26T09:43:17;3.75;;;3.35;;
53833;SDS011;39735;51.432;5.482;2024-02-26T09:45:47;3.10;;;2.78;;
53833;SDS011;39735;51.432;5.482;2024-02-26T09:48:12;4.50;;;2.63;;
53833;SDS011;39735;51.432;5.482;2024-02-26T09:50:41;6.40;;;3.17;;
53833;SDS011;39735;51.432;5.482;2024-02-26T09:53:08;9.43;;;3.78;;
53833;SDS011;39735;51.432;5.482;2024-02-26T09:55:35;3.78;;;3.45;;
53833;SDS011;39735;51.432;5.482;2024-02-26T09:58:01;3.55;;;2.70;;
53833;SDS011;39735;51.432;5.482;2024-02-26T10:00:27;11.25;;;4.15;;
53833;SDS011;39735;51.432;5.482;2024-02-26T10:02:58;3.95;;;3.17;;
53833;SDS011;39735;51.432;5.482;2024-02-26T10:05:28;20.38;;;3.47;;
53833;SDS011;39735;51.432;5.482;2024-02-26T10:07:54;4.05;;;3.08;;
53833;SDS011;39735;51.432;5.482;2024-02-26T10:10:22;3.83;;;3.53;;
53833;SDS011;39735;51.432;5.482;2024-02-26T10:12:48;3.58;;;3.25;;
53833;SDS011;39735;51.432;5.482;2024-02-26T10:15:14;9.63;;;4.95;;
53833;SDS011;39735;51.432;5.482;2024-02-26T10:17:39;5.00;;;3.55;;
53833;SDS011;39735;51.432;5.482;2024-02-26T10:22:42;7.82;;;3.78;;
53833;SDS011;39735;51.432;5.482;2024-02-26T10:25:08;4.45;;;4.05;;
53833;SDS011;39735;51.432;5.482;2024-02-26T10:27:34;3.47;;;3.20;;
53833;SDS011;39735;51.432;5.482;2024-02-26T10:30:03;4.05;;;3.70;;
53833;SDS011;39735;51.432;5.482;2024-02-26T10:32:30;7.05;;;2.88;;
53833;SDS011;39735;51.432;5.482;2024-02-26T10:34:57;3.90;;;3.55;;
53833;SDS011;39735;51.432;5.482;2024-02-26T10:37:22;7.78;;;4.00;;
53833;SDS011;39735;51.432;5.482;2024-02-26T10:39:50;5.13;;;4.05;;
53833;SDS011;39735;51.432;5.482;2024-02-26T10:42:15;4.68;;;4.03;;
53833;SDS011;39735;51.432;5.482;2024-02-26T10:44:43;4.13;;;3.78;;
53833;SDS011;39735;51.432;5.482;2024-02-26T10:47:10;4.38;;;3.95;;
53833;SDS011;39735;51.432;5.482;2024-02-26T10:49:35;4.60;;;4.20;;
53833;SDS011;39735;51.432;5.482;2024-02-26T10:52:00;6.22;;;4.22;;
53833;SDS011;39735;51.432;5.482;2024-02-26T10:54:29;5.20;;;4.82;;
53833;SDS011;39735;51.432;5.482;2024-02-26T10:56:55;5.95;;;5.13;;
53833;SDS011;39735;51.432;5.482;2024-02-26T10:59:22;5.97;;;5.25;;
53833;SDS011;39735;51.432;5.482;2024-02-26T11:01:48;6.68;;;4.72;;
53833;SDS011;39735;51.432;5.482;2024-02-26T11:04:14;6.45;;;5.28;;
53833;SDS011;39735;51.432;5.482;2024-02-26T11:06:41;7.43;;;6.35;;
53833;SDS011;39735;51.432;5.482;2024-02-26T11:09:08;5.35;;;5.05;;
53833;SDS011;39735;51.432;5.482;2024-02-26T11:11:38;6.90;;;6.07;;
53833;SDS011;39735;51.432;5.482;2024-02-26T11:14:05;8.27;;;6.95;;
53833;SDS011;39735;51.432;5.482;2024-02-26T11:16:31;7.68;;;6.32;;
53833;SDS011;39735;51.432;5.482;2024-02-26T11:18:59;7.38;;;6.68;;
53833;SDS011;39735;51.432;5.482;2024-02-26T11:21:25;6.47;;;5.88;;
53833;SDS011;39735;51.432;5.482;2024-02-26T11:24:03;6.97;;;6.45;;
53833;SDS011;39735;51.432;5.482;2024-02-26T11:26:30;6.10;;;5.70;;
53833;SDS011;39735;51.432;5.482;2024-02-26T11:28:56;7.43;;;6.82;;
53833;SDS011;39735;51.432;5.482;2024-02-26T11:31:24;7.60;;;6.90;;
53833;SDS011;39735;51.432;5.482;2024-02-26T11:33:53;9.50;;;7.70;;
53833;SDS011;39735;51.432;5.482;2024-02-26T11:36:19;12.45;;;8.88;;
53833;SDS011;39735;51.432;5.482;2024-02-26T11:38:44;11.40;;;9.35;;
53833;SDS011;39735;51.432;5.482;2024-02-26T11:41:14;7.70;;;7.07;;
53833;SDS011;39735;51.432;5.482;2024-02-26T11:46:28;11.00;;;8.27;;
53833;SDS011;39735;51.432;5.482;2024-02-26T11:48:58;9.35;;;8.60;;
53833;SDS011;39735;51.432;5.482;2024-02-26T11:51:42;17.15;;;8.00;;
53833;SDS011;39735;51.432;5.482;2024-02-26T11:54:08;9.77;;;7.05;;
53833;SDS011;39735;51.432;5.482;2024-02-26T11:56:34;10.93;;;7.47;;
53833;SDS011;39735;51.432;5.482;2024-02-26T11:59:00;8.35;;;7.68;;
53833;SDS011;39735;51.432;5.482;2024-02-26T12:01:40;9.48;;;8.57;;
53833;SDS011;39735;51.432;5.482;2024-02-26T12:04:17;13.70;;;9.77;;
53833;SDS011;39735;51.432;5.482;2024-02-26T12:06:47;10.65;;;9.40;;
53833;SDS011;39735;51.432;5.482;2024-02-26T12:09:31;19.42;;;9.93;;
53833;SDS011;39735;51.432;5.482;2024-02-26T12:11:58;12.77;;;9.88;;
53833;SDS011;39735;51.432;5.482;2024-02-26T12:14:26;10.25;;;8.60;;
53833;SDS011;39735;51.432;5.482;2024-02-26T12:16:52;12.52;;;9.43;;
53833;SDS011;39735;51.432;5.482;2024-02-26T12:19:18;13.98;;;9.63;;
53833;SDS011;39735;51.432;5.482;2024-02-26T12:21:43;13.15;;;10.88;;
53833;SDS011;39735;51.432;5.482;2024-02-26T12:24:10;13.93;;;10.82;;
53833;SDS011;39735;51.432;5.482;2024-02-26T12:26:37;10.98;;;9.82;;
53833;SDS011;39735;51.432;5.482;2024-02-26T12:29:03;15.13;;;10.70;;
53833;SDS011;39735;51.432;5.482;2024-02-26T12:31:28;12.82;;;11.10;;
53833;SDS011;39735;51.432;5.482;2024-02-26T12:33:54;17.98;;;12.93;;
53833;SDS011;39735;51.432;5.482;2024-02-26T12:36:20;15.30;;;12.30;;
53833;SDS011;39735;51.432;5.482;2024-02-26T12:38:46;18.13;;;13.43;;
53833;SDS011;39735;51.432;5.482;2024-02-26T12:41:12;14.82;;;13.35;;
53833;SDS011;39735;51.432;5.482;2024-02-26T12:43:38;17.10;;;14.68;;
53833;SDS011;39735;51.432;5.482;2024-02-26T12:46:03;14.98;;;13.45;;
53833;SDS011;39735;51.432;5.482;2024-02-26T12:48:29;18.55;;;14.85;;
53833;SDS011;39735;51.432;5.482;2024-02-26T12:50:54;16.10;;;13.75;;
53833;SDS011;39735;51.432;5.482;2024-02-26T12:53:21;17.52;;;15.65;;
53833;SDS011;39735;51.432;5.482;2024-02-26T12:55:47;19.80;;;14.10;;
53833;SDS011;39735;51.432;5.482;2024-02-26T12:58:12;18.75;;;15.23;;
53833;SDS011;39735;51.432;5.482;2024-02-26T13:00:41;18.45;;;14.88;;
53833;SDS011;39735;51.432;5.482;2024-02-26T13:03:07;16.92;;;14.80;;
53833;SDS011;39735;51.432;5.482;2024-02-26T13:05:32;17.17;;;14.35;;
53833;SDS011;39735;51.432;5.482;2024-02-26T13:07:58;18.58;;;15.25;;
53833;SDS011;39735;51.432;5.482;2024-02-26T13:10:24;16.73;;;14.90;;
53833;SDS011;39735;51.432;5.482;2024-02-26T13:12:50;18.92;;;15.63;;
53833;SDS011;39735;51.432;5.482;2024-02-26T13:15:17;21.73;;;17.00;;
53833;SDS011;39735;51.432;5.482;2024-02-26T13:17:43;20.70;;;16.92;;
53833;SDS011;39735;51.432;5.482;2024-02-26T13:20:09;26.45;;;19.65;;
53833;SDS011;39735;51.432;5.482;2024-02-26T13:22:35;37.70;;;20.35;;
53833;SDS011;39735;51.432;5.482;2024-02-26T13:25:02;16.85;;;14.57;;
53833;SDS011;39735;51.432;5.482;2024-02-26T13:27:28;24.10;;;15.70;;
53833;SDS011;39735;51.432;5.482;2024-02-26T13:32:31;25.35;;;18.70;;
53833;SDS011;39735;51.432;5.482;2024-02-26T13:35:07;21.73;;;15.98;;
53833;SDS011;39735;51.432;5.482;2024-02-26T13:37:34;20.48;;;14.25;;
53833;SDS011;39735;51.432;5.482;2024-02-26T13:40:09;18.95;;;14.23;;
53833;SDS011;39735;51.432;5.482;2024-02-26T13:42:36;19.50;;;15.68;;
53833;SDS011;39735;51.432;5.482;2024-02-26T13:45:02;26.83;;;14.80;;
53833;SDS011;39735;51.432;5.482;2024-02-26T13:47:28;16.23;;;13.30;;
53833;SDS011;39735;51.432;5.482;2024-02-26T13:49:53;17.77;;;13.60;;
53833;SDS011;39735;51.432;5.482;2024-02-26T13:52:19;17.58;;;13.05;;
53833;SDS011;39735;51.432;5.482;2024-02-26T13:54:47;16.33;;;13.82;;
53833;SDS011;39735;51.432;5.482;2024-02-26T13:57:12;16.45;;;14.30;;
53833;SDS011;39735;51.432;5.482;2024-02-26T13:59:38;22.58;;;13.20;;
53833;SDS011;39735;51.432;5.482;2024-02-26T14:02:07;15.13;;;12.82;;
53833;SDS011;39735;51.432;5.482;2024-02-26T14:04:33;15.50;;;13.43;;
53833;SDS011;39735;51.432;5.482;2024-02-26T14:06:58;16.13;;;12.38;;
53833;SDS011;39735;51.432;5.482;2024-02-26T14:09:24;18.58;;;10.38;;
53833;SDS011;39735;51.432;5.482;2024-02-26T14:11:49;12.07;;;10.85;;
53833;SDS011;39735;51.432;5.482;2024-02-26T14:14:15;19.40;;;11.00;;
53833;SDS011;39735;51.432;5.482;2024-02-26T14:16:41;16.25;;;10.52;;
53833;SDS011;39735;51.432;5.482;2024-02-26T14:19:06;12.40;;;11.07;;
53833;SDS011;39735;51.432;5.482;2024-02-26T14:21:32;11.85;;;9.77;;
53833;SDS011;39735;51.432;5.482;2024-02-26T14:23:57;13.63;;;11.52;;
53833;SDS011;39735;51.432;5.482;2024-02-26T14:26:23;12.18;;;10.93;;
53833;SDS011;39735;51.432;5.482;2024-02-26T14:28:48;29.08;;;11.52;;
53833;SDS011;39735;51.432;5.482;2024-02-26T14:31:17;12.35;;;10.15;;
53833;SDS011;39735;51.432;5.482;2024-02-26T14:33:43;10.70;;;8.18;;
53833;SDS011;39735;51.432;5.482;2024-02-26T14:36:08;8.90;;;7.30;;
53833;SDS011;39735;51.432;5.482;2024-02-26T14:38:34;11.63;;;9.05;;
53833;SDS011;39735;51.432;5.482;2024-02-26T14:40:59;19.35;;;8.35;;
53833;SDS011;39735;51.432;5.482;2024-02-26T14:43:25;10.35;;;9.45;;
53833;SDS011;39735;51.432;5.482;2024-02-26T14:45:50;10.93;;;8.45;;